Time;durP1;ratioP1;P1;durP2;ratioP2;P2;SDS_P1;SDS_P2;PMS_P1;PMS_P2;Temp;Humidity;BMP_temperature;BMP_pressure;BME280_temperature;BME280_humidity;BME280_pressure;Samples;Min_cycle;Max_cycle;Signal;HPM_P1;HPM_P2
2021/12/18 00:01:31;;;;;;;17.25;6.93;;;7.40;99.90;;;;;;4969207;28;20039;-71
2021/12/18 00:03:57;;;;;;;21.70;7.28;;;7.40;99.90;;;;;;5001492;28;20081;-71
2021/12/18 00:06:27;;;;;;;23.38;7.30;;;7.30;99.90;;;;;;4969285;28;20093;-71
2021/12/18 00:08:55;;;;;;;28.33;7.70;;;7.30;99.90;;;;;;4985141;28;20035;-71
2021/12/18 00:11:21;;;;;;;15.88;5.88;;;7.30;99.90;;;;;;4999345;28;20039;-72
2021/12/18 00:13:48;;;;;;;28.00;6.80;;;7.30;99.90;;;;;;5001585;28;20042;-71
2021/12/18 00:16:14;;;;;;;31.25;7.80;;;7.30;99.90;;;;;;4985026;28;20063;-71
2021/12/18 00:18:40;;;;;;;25.13;6.88;;;7.20;99.90;;;;;;5001348;28;20058;-71
2021/12/18 00:21:07;;;;;;;33.13;8.27;;;7.20;99.90;;;;;;4984839;28;20047;-71
2021/12/18 00:23:33;;;;;;;22.45;6.68;;;7.30;99.90;;;;;;4968814;28;20066;-71
2021/12/18 00:25:59;;;;;;;34.28;6.63;;;7.30;99.90;;;;;;4968848;28;20043;-71
2021/12/18 00:28:25;;;;;;;14.07;3.50;;;7.30;99.90;;;;;;5001215;28;20035;-71
2021/12/18 00:30:51;;;;;;;51.85;6.88;;;7.20;99.90;;;;;;4969118;28;20046;-71
2021/12/18 00:33:16;;;;;;;35.22;6.53;;;7.20;99.90;;;;;;4968663;28;20518;-71
2021/12/18 00:35:42;;;;;;;49.25;7.55;;;7.20;99.90;;;;;;4969092;28;20055;-71
2021/12/18 00:38:09;;;;;;;58.58;8.00;;;7.20;99.90;;;;;;4972203;28;20050;-71
2021/12/18 00:40:47;;;;;;;25.80;5.30;;;7.20;99.90;;;;;;4972060;28;20126;-71
2021/12/18 00:43:30;;;;;;;19.73;4.25;;;7.20;99.90;;;;;;4969909;28;20051;-71
2021/12/18 00:45:56;;;;;;;38.53;5.88;;;7.10;99.90;;;;;;4955886;28;20092;-71
2021/12/18 00:48:22;;;;;;;23.42;4.78;;;7.10;99.90;;;;;;4955771;28;20042;-71
2021/12/18 00:50:48;;;;;;;22.77;4.43;;;7.10;99.90;;;;;;4955842;28;20039;-71
2021/12/18 00:53:14;;;;;;;22.60;4.50;;;7.10;99.90;;;;;;4955671;28;20076;-71
2021/12/18 00:55:40;;;;;;;53.30;5.30;;;7.00;99.90;;;;;;4955749;28;20092;-71
2021/12/18 00:58:07;;;;;;;58.97;5.45;;;6.90;99.90;;;;;;4972287;28;20042;-71
2021/12/18 01:00:34;;;;;;;50.95;4.07;;;6.90;99.90;;;;;;4971697;28;20051;-71
2021/12/18 01:03:02;;;;;;;53.40;5.78;;;6.80;99.90;;;;;;4972053;28;20386;-70
2021/12/18 01:05:30;;;;;;;29.50;3.70;;;6.80;99.90;;;;;;4971603;28;20119;-70
2021/12/18 01:07:58;;;;;;;28.00;3.58;;;6.80;99.90;;;;;;4971566;28;20046;-71
2021/12/18 01:13:00;;;;;;;50.15;4.70;;;6.80;99.90;;;;;;4969390;28;20046;-70
2021/12/18 01:15:34;;;;;;;34.53;3.97;;;6.70;99.90;;;;;;4976272;28;20078;-71
2021/12/18 01:23:30;;;;;;;21.05;3.05;;;6.70;99.90;;;;;;4993953;28;20038;-70
2021/12/18 01:25:57;;;;;;;23.80;2.95;;;6.60;99.90;;;;;;4978105;28;20125;-70
2021/12/18 01:28:24;;;;;;;14.23;2.10;;;6.60;99.90;;;;;;4993997;28;20034;-70
2021/12/18 01:30:51;;;;;;;24.70;3.42;;;6.60;99.90;;;;;;4994156;28;20085;-70
2021/12/18 01:33:17;;;;;;;29.42;2.88;;;6.60;99.90;;;;;;4993922;28;20053;-70
2021/12/18 01:35:43;;;;;;;8.95;2.45;;;6.60;99.90;;;;;;4994069;28;20433;-71
2021/12/18 01:38:13;;;;;;;18.55;2.83;;;6.60;99.90;;;;;;4993925;28;20406;-71
2021/12/18 01:40:39;;;;;;;33.50;4.57;;;6.60;99.90;;;;;;5010011;28;20053;-70
2021/12/18 01:51:31;;;;;;;29.58;3.90;;;6.70;99.90;;;;;;4993783;28;20095;-70
2021/12/18 01:53:57;;;;;;;18.48;3.35;;;6.70;99.90;;;;;;5026552;28;20058;-71
2021/12/18 01:56:25;;;;;;;12.32;2.78;;;6.70;99.90;;;;;;4993834;28;20045;-70
2021/12/18 01:58:51;;;;;;;11.60;2.35;;;6.70;99.90;;;;;;4993527;28;20098;-70
2021/12/18 02:01:18;;;;;;;9.65;2.28;;;6.70;99.90;;;;;;4993432;28;20125;-71
2021/12/18 02:03:45;;;;;;;7.70;2.28;;;6.70;99.90;;;;;;5026236;28;20038;-71
2021/12/18 02:06:12;;;;;;;7.18;2.13;;;6.70;99.90;;;;;;4993707;28;20037;-70
2021/12/18 02:08:39;;;;;;;15.63;3.33;;;6.60;99.90;;;;;;4993298;28;20038;-71
2021/12/18 02:21:42;;;;;;;17.58;3.33;;;6.60;99.90;;;;;;4993229;28;20078;-71
2021/12/18 02:24:08;;;;;;;18.75;3.42;;;6.60;99.90;;;;;;5026006;28;20050;-70
2021/12/18 02:26:34;;;;;;;28.20;4.47;;;6.60;99.90;;;;;;5009673;28;20383;-70
2021/12/18 02:29:03;;;;;;;17.90;3.22;;;6.60;99.90;;;;;;5009659;28;20053;-70
2021/12/18 02:31:30;;;;;;;11.30;2.88;;;6.70;99.90;;;;;;4993192;28;20050;-70
2021/12/18 02:33:57;;;;;;;16.95;3.42;;;6.70;99.90;;;;;;4993145;28;20069;-70
2021/12/18 02:36:24;;;;;;;14.93;2.95;;;6.70;99.90;;;;;;4992934;28;20048;-70
2021/12/18 02:41:36;;;;;;;24.00;4.35;;;6.60;99.90;;;;;;5003373;28;20132;-70
2021/12/18 02:44:08;;;;;;;16.27;3.33;;;6.60;99.90;;;;;;5005900;28;20040;-71
2021/12/18 02:46:35;;;;;;;26.15;3.88;;;6.70;99.90;;;;;;4973302;28;20129;-71
2021/12/18 02:49:15;;;;;;;21.38;3.72;;;6.70;99.90;;;;;;4973315;28;20042;-70
2021/12/18 02:51:43;;;;;;;23.17;4.70;;;6.70;99.90;;;;;;4989607;28;20437;-71
2021/12/18 02:54:09;;;;;;;18.05;3.70;;;6.70;99.90;;;;;;4990908;28;20122;-71
2021/12/18 02:56:35;;;;;;;39.70;5.43;;;6.70;99.90;;;;;;5005842;28;20395;-72
2021/12/18 02:59:07;;;;;;;18.73;4.50;;;6.70;99.90;;;;;;4988786;28;20482;-70
2021/12/18 03:01:35;;;;;;;30.70;5.13;;;6.70;99.90;;;;;;4972942;28;20086;-71
2021/12/18 03:04:02;;;;;;;30.70;5.22;;;6.70;99.90;;;;;;4989567;28;20493;-70
2021/12/18 03:06:36;;;;;;;39.03;4.25;;;6.70;99.90;;;;;;4972964;28;20043;-71
2021/12/18 03:25:20;;;;;;;26.30;3.75;;;6.60;99.90;;;;;;5005354;28;20050;-70
2021/12/18 03:28:07;;;;;;;21.40;3.00;;;6.50;99.90;;;;;;4990247;28;20041;-70
2021/12/18 03:30:34;;;;;;;14.48;2.75;;;6.50;99.90;;;;;;5005162;28;20053;-70
2021/12/18 03:33:00;;;;;;;21.15;3.58;;;6.50;99.90;;;;;;4972831;28;20042;-71
2021/12/18 03:35:26;;;;;;;23.83;3.42;;;6.50;99.90;;;;;;4972662;28;20049;-70
2021/12/18 03:37:53;;;;;;;29.80;3.75;;;6.50;99.90;;;;;;4973313;28;20220;-70
2021/12/18 03:40:21;;;;;;;26.23;3.60;;;6.50;99.90;;;;;;5024823;28;20447;-71
2021/12/18 03:42:47;;;;;;;6.85;1.88;;;6.50;99.90;;;;;;4990072;28;20045;-71
2021/12/18 03:45:15;;;;;;;12.60;2.25;;;6.50;99.90;;;;;;4991842;28;20401;-70
2021/12/18 03:47:41;;;;;;;9.07;2.15;;;6.50;99.90;;;;;;4975761;28;20038;-71
2021/12/18 03:50:08;;;;;;;13.15;2.47;;;6.40;99.90;;;;;;5008097;28;20079;-71
2021/12/18 03:52:33;;;;;;;22.33;3.72;;;6.40;99.90;;;;;;4991870;28;20044;-70
2021/12/18 03:54:59;;;;;;;25.95;4.05;;;6.40;99.90;;;;;;5008162;28;20291;-70
2021/12/18 03:57:26;;;;;;;18.80;3.50;;;6.40;99.90;;;;;;4991720;28;20077;-70
2021/12/18 03:59:52;;;;;;;14.35;2.80;;;6.40;99.90;;;;;;4992106;28;20077;-70
2021/12/18 04:02:18;;;;;;;8.18;1.83;;;6.40;99.90;;;;;;4991583;28;20037;-70
2021/12/18 04:04:44;;;;;;;9.95;2.20;;;6.40;99.90;;;;;;4991669;28;20034;-70
2021/12/18 04:07:10;;;;;;;15.52;2.42;;;6.40;99.90;;;;;;5007868;28;20046;-70
2021/12/18 04:09:36;;;;;;;15.90;2.53;;;6.40;99.90;;;;;;4991681;28;20138;-70
2021/12/18 04:12:02;;;;;;;15.30;2.28;;;6.30;99.90;;;;;;5024187;28;20129;-70
2021/12/18 04:14:29;;;;;;;6.72;1.83;;;6.30;99.90;;;;;;5011499;28;20046;-70
2021/12/18 04:16:55;;;;;;;14.00;2.33;;;6.30;99.90;;;;;;4994747;28;20077;-70
2021/12/18 04:19:21;;;;;;;11.15;2.40;;;6.30;99.90;;;;;;4995188;28;20045;-70
2021/12/18 04:21:47;;;;;;;8.80;2.30;;;6.30;99.90;;;;;;4994982;28;20374;-70
2021/12/18 04:24:13;;;;;;;14.27;2.08;;;6.30;99.90;;;;;;4995161;28;20034;-70
2021/12/18 04:26:39;;;;;;;12.07;2.30;;;6.30;99.90;;;;;;4994872;28;20045;-71
2021/12/18 04:29:06;;;;;;;8.63;2.00;;;6.20;99.90;;;;;;4994984;28;20516;-71
2021/12/18 04:31:34;;;;;;;8.80;2.22;;;6.30;99.90;;;;;;4995059;28;20050;-71
2021/12/18 04:34:02;;;;;;;12.15;2.42;;;6.20;99.90;;;;;;5011170;28;20354;-70
2021/12/18 04:36:27;;;;;;;17.80;2.58;;;6.20;99.90;;;;;;4995066;28;20398;-71
2021/12/18 04:38:53;;;;;;;13.07;2.65;;;6.20;99.90;;;;;;4978642;28;20056;-70
2021/12/18 04:41:24;;;;;;;26.05;2.88;;;6.20;99.90;;;;;;4992120;28;20057;-70
2021/12/18 04:43:51;;;;;;;16.55;3.25;;;6.20;99.90;;;;;;4994581;28;20077;-70
2021/12/18 04:46:17;;;;;;;14.05;2.78;;;6.20;99.90;;;;;;4994524;28;20075;-70
2021/12/18 04:48:43;;;;;;;17.10;3.33;;;6.10;99.90;;;;;;4994606;28;20046;-71
2021/12/18 04:51:09;;;;;;;26.10;3.38;;;6.10;99.90;;;;;;4978571;28;20046;-71
2021/12/18 04:53:35;;;;;;;26.17;3.47;;;6.10;99.90;;;;;;4994538;28;20085;-70
2021/12/18 04:56:02;;;;;;;16.75;2.78;;;6.10;99.90;;;;;;4994481;28;20052;-70
2021/12/18 04:58:28;;;;;;;22.98;3.78;;;6.20;99.90;;;;;;4994721;28;20095;-70
2021/12/18 05:00:54;;;;;;;31.88;4.45;;;6.20;99.90;;;;;;4994310;28;20497;-70
2021/12/18 05:03:20;;;;;;;24.05;3.90;;;6.20;99.90;;;;;;4994701;28;20037;-70
2021/12/18 05:05:47;;;;;;;23.95;4.13;;;6.20;99.90;;;;;;4994324;28;20409;-70
2021/12/18 05:08:13;;;;;;;25.08;3.90;;;6.30;99.90;;;;;;4994226;28;20049;-70
2021/12/18 05:10:39;;;;;;;32.15;4.43;;;6.20;99.90;;;;;;4994493;28;20053;-70
2021/12/18 05:13:05;;;;;;;46.15;6.05;;;6.30;99.90;;;;;;4992218;28;20512;-70
2021/12/18 05:15:31;;;;;;;52.75;6.80;;;6.30;99.90;;;;;;4978223;28;20049;-71
2021/12/18 05:17:57;;;;;;;43.33;5.22;;;6.30;99.90;;;;;;4994075;28;20460;-70
2021/12/18 05:20:22;;;;;;;30.15;4.25;;;6.30;99.90;;;;;;4994028;28;20049;-70
2021/12/18 05:22:48;;;;;;;40.55;5.20;;;6.40;99.90;;;;;;4993604;28;20038;-70
2021/12/18 05:25:14;;;;;;;38.47;5.25;;;6.40;99.90;;;;;;4994017;28;20042;-70
2021/12/18 05:27:40;;;;;;;40.58;5.18;;;6.40;99.90;;;;;;4994124;28;20045;-70
2021/12/18 05:30:08;;;;;;;22.48;3.70;;;6.40;99.90;;;;;;4994056;28;20405;-70
2021/12/18 05:32:34;;;;;;;40.95;5.18;;;6.40;99.90;;;;;;4977577;28;20081;-70
2021/12/18 05:35:00;;;;;;;26.77;4.20;;;6.40;99.90;;;;;;4978208;28;20088;-70
2021/12/18 05:39:52;;;;;;;36.38;5.22;;;6.50;99.90;;;;;;4993766;28;20533;-70
2021/12/18 05:42:18;;;;;;;33.22;5.00;;;6.50;99.90;;;;;;4991633;28;20057;-70
2021/12/18 05:44:45;;;;;;;30.60;4.50;;;6.50;99.90;;;;;;5026521;28;20114;-70
2021/12/18 05:47:11;;;;;;;40.58;5.38;;;6.50;99.90;;;;;;4993816;28;20120;-71
2021/12/18 05:49:37;;;;;;;46.25;5.75;;;6.50;99.90;;;;;;5026806;28;20046;-70
2021/12/18 05:52:05;;;;;;;26.70;5.53;;;6.50;99.90;;;;;;4993906;28;20158;-70
2021/12/18 05:54:34;;;;;;;35.47;5.85;;;6.50;99.90;;;;;;4993708;28;20049;-70
2021/12/18 05:57:05;;;;;;;38.37;6.27;;;6.60;99.90;;;;;;4993539;28;20049;-71
2021/12/18 05:59:31;;;;;;;33.78;5.82;;;6.60;99.90;;;;;;4993717;28;20335;-71
2021/12/18 06:01:57;;;;;;;29.45;6.05;;;6.60;99.90;;;;;;4993598;28;20179;-70
2021/12/18 06:04:23;;;;;;;41.42;6.93;;;6.60;99.90;;;;;;5009784;28;20046;-70
2021/12/18 06:06:48;;;;;;;26.35;6.22;;;6.60;99.90;;;;;;4993681;28;20122;-71
2021/12/18 06:09:14;;;;;;;46.17;7.55;;;6.60;99.90;;;;;;5026230;28;20599;-70
2021/12/18 06:11:41;;;;;;;53.78;8.25;;;6.70;99.90;;;;;;4990858;28;20056;-71
2021/12/18 06:14:07;;;;;;;63.05;9.05;;;6.70;99.90;;;;;;4977536;28;20137;-71
2021/12/18 06:16:33;;;;;;;29.45;7.43;;;6.70;99.90;;;;;;4993296;28;20054;-70
2021/12/18 06:18:59;;;;;;;38.05;7.35;;;6.70;99.90;;;;;;4993307;28;20049;-70
2021/12/18 06:21:25;;;;;;;38.60;8.45;;;6.80;99.90;;;;;;5009485;28;20064;-70
2021/12/18 06:23:52;;;;;;;35.65;7.97;;;6.80;99.90;;;;;;4993012;28;20042;-71
2021/12/18 06:26:19;;;;;;;43.83;8.13;;;6.80;99.90;;;;;;4993368;28;20570;-71
2021/12/18 06:28:45;;;;;;;23.25;5.88;;;6.80;99.90;;;;;;5025805;28;20582;-71
2021/12/18 06:31:11;;;;;;;31.05;7.60;;;6.80;99.90;;;;;;5009683;28;20133;-71
2021/12/18 06:33:38;;;;;;;26.10;6.50;;;6.80;99.90;;;;;;5008581;28;20042;-71
2021/12/18 06:36:05;;;;;;;34.95;7.40;;;6.80;99.90;;;;;;4993040;28;20102;-70
2021/12/18 06:38:31;;;;;;;53.08;8.73;;;6.80;99.90;;;;;;4986939;28;20516;-70
2021/12/18 06:40:56;;;;;;;41.30;7.30;;;6.90;99.90;;;;;;5005920;28;20043;-70
2021/12/18 06:43:23;;;;;;;32.28;7.50;;;6.80;99.90;;;;;;5003466;28;20046;-70
2021/12/18 06:45:49;;;;;;;32.97;7.38;;;6.90;99.90;;;;;;4989602;28;20513;-70
2021/12/18 06:48:15;;;;;;;25.85;6.88;;;6.80;99.90;;;;;;4989762;28;20046;-70
2021/12/18 06:50:40;;;;;;;32.38;7.40;;;6.90;99.90;;;;;;4973420;28;20384;-70
2021/12/18 06:53:06;;;;;;;31.58;7.40;;;6.90;99.90;;;;;;4973418;28;20057;-71
2021/12/18 06:55:33;;;;;;;37.50;7.22;;;6.90;99.90;;;;;;4973996;28;20399;-70
2021/12/18 06:57:59;;;;;;;30.17;7.05;;;6.90;99.90;;;;;;4990609;28;20077;-70
2021/12/18 07:00:26;;;;;;;32.20;7.38;;;6.90;99.90;;;;;;4973336;28;20402;-70
2021/12/18 07:02:53;;;;;;;32.53;7.78;;;6.90;99.90;;;;;;5005892;28;20133;-70
2021/12/18 07:05:19;;;;;;;33.50;7.93;;;6.90;99.90;;;;;;5005623;28;20548;-70
2021/12/18 07:07:46;;;;;;;29.58;7.22;;;6.90;99.90;;;;;;4973222;28;20038;-70
2021/12/18 07:10:14;;;;;;;33.22;8.38;;;6.90;99.90;;;;;;5005540;28;20056;-70
2021/12/18 07:12:40;;;;;;;31.30;7.65;;;6.90;99.90;;;;;;4954547;28;20046;-70
2021/12/18 07:15:08;;;;;;;34.60;7.10;;;6.90;99.90;;;;;;5005479;28;20075;-70
2021/12/18 07:17:34;;;;;;;22.60;7.05;;;6.90;99.90;;;;;;4984379;28;20059;-70
2021/12/18 07:20:00;;;;;;;35.45;7.32;;;6.90;99.90;;;;;;4950587;29;20101;-70
2021/12/18 07:22:26;;;;;;;29.52;7.07;;;6.90;99.90;;;;;;4950512;28;20047;-70
2021/12/18 07:24:51;;;;;;;20.73;5.13;;;6.90;99.90;;;;;;4934800;28;20065;-70
2021/12/18 07:27:18;;;;;;;18.15;4.63;;;6.90;99.90;;;;;;4950443;28;20047;-70
2021/12/18 07:29:44;;;;;;;22.95;5.10;;;6.90;99.90;;;;;;4982536;28;20051;-70
2021/12/18 07:32:10;;;;;;;30.73;5.80;;;6.90;99.90;;;;;;4934303;29;20209;-70
2021/12/18 07:34:36;;;;;;;25.02;5.60;;;6.90;99.90;;;;;;4966558;28;20040;-70
2021/12/18 07:37:02;;;;;;;16.73;5.22;;;6.90;99.90;;;;;;4950412;29;20047;-70
2021/12/18 07:39:28;;;;;;;20.23;5.80;;;6.90;99.90;;;;;;4963646;28;20054;-70
2021/12/18 07:41:54;;;;;;;38.28;7.07;;;6.90;99.90;;;;;;4950944;28;20456;-70
2021/12/18 07:44:20;;;;;;;23.13;5.97;;;6.90;99.90;;;;;;4953734;28;20039;-70
2021/12/18 07:46:46;;;;;;;27.25;6.68;;;6.90;99.90;;;;;;4969192;28;20459;-70
2021/12/18 07:49:12;;;;;;;25.15;6.95;;;7.00;99.90;;;;;;4969891;28;20095;-70
2021/12/18 07:51:38;;;;;;;24.02;6.25;;;6.90;99.90;;;;;;4969255;28;20074;-70
2021/12/18 07:54:05;;;;;;;24.35;6.75;;;7.00;99.90;;;;;;4969480;28;20085;-70
2021/12/18 07:56:33;;;;;;;25.13;6.47;;;7.00;99.90;;;;;;4985385;28;20527;-70
2021/12/18 07:58:59;;;;;;;29.63;8.43;;;7.00;99.90;;;;;;5001989;28;20051;-70
2021/12/18 08:01:25;;;;;;;28.95;7.43;;;7.00;99.90;;;;;;4953108;28;20565;-70
2021/12/18 08:03:51;;;;;;;24.13;7.22;;;7.00;99.90;;;;;;4969051;28;20406;-70
2021/12/18 08:06:19;;;;;;;34.90;8.52;;;7.00;99.90;;;;;;4968939;28;20039;-70
2021/12/18 08:08:45;;;;;;;21.58;6.78;;;7.10;99.90;;;;;;4969008;28;20051;-70
2021/12/18 08:11:10;;;;;;;32.40;7.90;;;7.10;99.90;;;;;;4967546;28;20046;-70
2021/12/18 08:13:36;;;;;;;21.77;7.03;;;7.10;99.90;;;;;;4968334;28;20050;-70
2021/12/18 08:16:02;;;;;;;21.98;6.72;;;7.10;99.90;;;;;;4969072;28;20163;-70
2021/12/18 08:18:28;;;;;;;25.77;6.95;;;7.20;99.90;;;;;;4985350;28;20078;-70
2021/12/18 08:20:54;;;;;;;22.48;7.07;;;7.20;99.90;;;;;;5001513;28;20140;-70
2021/12/18 08:23:20;;;;;;;32.08;7.15;;;7.20;99.90;;;;;;4969094;28;20583;-70
2021/12/18 08:25:46;;;;;;;29.95;7.45;;;7.20;99.90;;;;;;4985427;28;20049;-70
2021/12/18 08:28:12;;;;;;;29.75;8.75;;;7.20;99.90;;;;;;4968892;28;20085;-70
2021/12/18 08:30:39;;;;;;;27.15;8.32;;;7.20;99.90;;;;;;4969087;28;20062;-70
2021/12/18 08:33:05;;;;;;;28.25;8.02;;;7.20;99.90;;;;;;5001291;28;20089;-70
2021/12/18 08:35:33;;;;;;;24.92;8.40;;;7.30;99.90;;;;;;4952516;28;20517;-70
2021/12/18 08:37:59;;;;;;;24.73;6.97;;;7.30;99.90;;;;;;5001091;28;20061;-70
2021/12/18 08:40:26;;;;;;;26.80;8.30;;;7.30;99.90;;;;;;4968721;28;20405;-70
2021/12/18 08:42:53;;;;;;;25.65;7.47;;;7.30;99.90;;;;;;4950370;28;20117;-70
2021/12/18 08:45:19;;;;;;;25.23;7.60;;;7.30;99.90;;;;;;4968580;28;20043;-70
2021/12/18 08:47:45;;;;;;;21.55;7.38;;;7.40;99.90;;;;;;4968885;28;20467;-70
2021/12/18 08:50:15;;;;;;;31.45;8.10;;;7.40;99.90;;;;;;4968931;28;20168;-70
2021/12/18 08:52:42;;;;;;;25.55;7.70;;;7.40;99.90;;;;;;4968888;28;20076;-70
2021/12/18 08:55:09;;;;;;;17.98;6.53;;;7.40;99.90;;;;;;4968718;28;20043;-70
2021/12/18 08:57:35;;;;;;;22.90;8.00;;;7.50;99.90;;;;;;4969903;28;20050;-70
2021/12/18 09:00:02;;;;;;;45.63;10.20;;;7.50;99.90;;;;;;4971895;28;20043;-70
2021/12/18 09:02:28;;;;;;;26.83;8.70;;;7.50;99.90;;;;;;4955906;28;20100;-70
2021/12/18 09:04:54;;;;;;;27.10;8.38;;;7.60;99.90;;;;;;4971678;28;20403;-70
2021/12/18 09:07:19;;;;;;;25.65;7.88;;;7.60;99.90;;;;;;4971988;28;20039;-69
2021/12/18 09:09:45;;;;;;;26.55;8.93;;;7.60;99.90;;;;;;4971654;28;20119;-69
2021/12/18 09:12:12;;;;;;;27.77;8.60;;;7.60;99.90;;;;;;4969684;28;20050;-69
2021/12/18 09:14:39;;;;;;;49.13;10.43;;;7.60;99.90;;;;;;4971542;28;20049;-70
2021/12/18 09:17:08;;;;;;;37.85;10.23;;;7.70;99.90;;;;;;4971479;28;20498;-69
2021/12/18 09:19:34;;;;;;;41.28;11.02;;;7.70;99.90;;;;;;4971377;28;20047;-70
2021/12/18 09:22:00;;;;;;;30.33;9.70;;;7.80;99.90;;;;;;4955524;28;20072;-70
2021/12/18 09:24:26;;;;;;;30.73;10.48;;;7.80;99.90;;;;;;4971371;28;20047;-70
2021/12/18 09:26:52;;;;;;;26.85;9.65;;;7.80;99.90;;;;;;4971394;28;20038;-70
2021/12/18 09:29:19;;;;;;;21.98;9.05;;;7.80;99.90;;;;;;4971563;28;20066;-70
2021/12/18 09:31:45;;;;;;;40.30;10.88;;;7.90;99.90;;;;;;4971491;28;20082;-70
2021/12/18 09:34:11;;;;;;;32.60;10.27;;;7.90;99.90;;;;;;4971441;28;20398;-70
2021/12/18 09:36:37;;;;;;;40.95;11.75;;;7.90;99.90;;;;;;4971225;28;20043;-70
2021/12/18 09:39:04;;;;;;;27.27;9.95;;;8.00;99.90;;;;;;4971404;28;20180;-70
2021/12/18 09:41:31;;;;;;;23.42;8.43;;;8.00;99.90;;;;;;4968812;28;20061;-70
2021/12/18 09:43:57;;;;;;;33.22;10.02;;;8.00;99.90;;;;;;4987368;28;20096;-70
2021/12/18 09:46:22;;;;;;;29.63;10.02;;;8.00;99.90;;;;;;4954902;28;20047;-70
2021/12/18 09:48:48;;;;;;;30.77;9.82;;;8.10;99.90;;;;;;4971394;28;20039;-70
2021/12/18 09:51:23;;;;;;;24.95;8.70;;;8.10;99.90;;;;;;4970977;28;20055;-70
2021/12/18 09:53:51;;;;;;;21.52;8.85;;;8.10;99.90;;;;;;4998615;28;20220;-70
2021/12/18 09:56:17;;;;;;;29.23;11.07;;;8.20;99.90;;;;;;4964961;28;20051;-70
2021/12/18 09:58:43;;;;;;;31.90;9.93;;;8.20;99.90;;;;;;4954810;28;20050;-70
2021/12/18 10:01:09;;;;;;;27.67;8.82;;;8.20;99.90;;;;;;4954597;28;20088;-70
2021/12/18 10:03:50;;;;;;;20.83;8.32;;;8.20;99.90;;;;;;4953651;28;20077;-70
2021/12/18 10:06:34;;;;;;;21.08;7.95;;;8.20;99.90;;;;;;4954706;28;20046;-70
2021/12/18 10:09:00;;;;;;;19.63;6.50;;;8.30;99.90;;;;;;4969851;28;20096;-70
2021/12/18 10:11:26;;;;;;;23.58;8.38;;;8.30;99.90;;;;;;4968521;28;20105;-70
2021/12/18 10:13:57;;;;;;;22.83;7.75;;;8.40;99.90;;;;;;4971059;28;20518;-70
2021/12/18 10:16:27;;;;;;;26.33;7.97;;;8.40;99.90;;;;;;4978476;28;20097;-70
2021/12/18 10:18:55;;;;;;;28.77;8.73;;;8.40;99.90;;;;;;4973961;28;20092;-70
2021/12/18 10:21:24;;;;;;;15.93;6.70;;;8.50;99.90;;;;;;4989925;28;20491;-70
2021/12/18 10:23:51;;;;;;;17.30;7.22;;;8.50;99.90;;;;;;4990193;28;20047;-70
2021/12/18 10:26:31;;;;;;;19.25;6.40;;;8.50;99.90;;;;;;4990085;28;20035;-70
2021/12/18 10:28:56;;;;;;;16.10;6.33;;;8.50;99.90;;;;;;4973872;28;20094;-70
2021/12/18 10:31:45;;;;;;;15.70;5.88;;;8.50;99.90;;;;;;4973657;28;20058;-70
2021/12/18 10:34:26;;;;;;;16.35;6.22;;;8.50;99.90;;;;;;4973626;28;20559;-70
2021/12/18 10:37:13;;;;;;;12.73;5.95;;;8.60;99.90;;;;;;4990122;28;20085;-72
2021/12/18 10:39:50;;;;;;;14.45;5.78;;;8.60;99.90;;;;;;4974542;28;20100;-71
2021/12/18 10:42:19;;;;;;;23.65;6.78;;;8.70;99.90;;;;;;5000448;28;20130;-69
2021/12/18 10:45:11;;;;;;;12.75;5.53;;;8.70;99.90;;;;;;5002587;28;20049;-69
2021/12/18 10:47:57;;;;;;;13.35;5.40;;;8.70;99.90;;;;;;4970385;28;20042;-69
2021/12/18 10:50:31;;;;;;;9.73;5.13;;;8.70;99.90;;;;;;5002517;28;20049;-69
2021/12/18 10:53:08;;;;;;;10.55;5.22;;;8.70;99.90;;;;;;5002625;28;20046;-68
2021/12/18 10:55:42;;;;;;;9.68;4.00;;;8.70;99.90;;;;;;4969981;28;20502;-68
2021/12/18 10:58:12;;;;;;;7.88;4.00;;;8.70;99.90;;;;;;5002598;28;20168;-68
2021/12/18 11:01:07;;;;;;;7.95;4.00;;;8.60;99.90;;;;;;4970040;28;20410;-69
2021/12/18 11:03:43;;;;;;;7.32;3.70;;;8.60;99.90;;;;;;4996615;28;20077;-68
2021/12/18 11:06:11;;;;;;;7.13;3.53;;;8.60;99.90;;;;;;4971028;28;20047;-68
2021/12/18 11:09:00;;;;;;;5.07;2.70;;;8.60;99.90;;;;;;5003579;28;20047;-69
2021/12/18 11:14:06;;;;;;;6.10;2.40;;;8.60;99.90;;;;;;4971010;28;20394;-69
2021/12/18 11:16:36;;;;;;;4.30;2.55;;;8.60;99.90;;;;;;4970750;28;20115;-69
2021/12/18 11:19:13;;;;;;;4.50;2.90;;;8.60;99.90;;;;;;5003495;28;20050;-68
2021/12/18 11:21:49;;;;;;;4.82;2.05;;;8.60;99.90;;;;;;4970065;28;20547;-68
2021/12/18 11:24:15;;;;;;;5.28;2.20;;;8.60;99.90;;;;;;5003119;28;20402;-69
2021/12/18 11:26:44;;;;;;;5.43;2.40;;;8.60;99.90;;;;;;4970403;28;20625;-68
2021/12/18 11:29:22;;;;;;;4.68;2.58;;;8.60;99.90;;;;;;4970803;28;20364;-68
2021/12/18 11:31:49;;;;;;;5.35;2.65;;;8.70;99.90;;;;;;4986884;28;20046;-68
2021/12/18 11:34:16;;;;;;;5.78;3.13;;;8.60;99.90;;;;;;4986631;28;20510;-69
2021/12/18 11:36:45;;;;;;;6.47;2.85;;;8.70;99.90;;;;;;5002771;28;20487;-69
2021/12/18 11:39:13;;;;;;;4.95;3.10;;;8.70;99.90;;;;;;4970462;28;20096;-68
2021/12/18 11:41:40;;;;;;;7.43;3.08;;;8.70;99.90;;;;;;4968065;28;20047;-68
2021/12/18 11:44:38;;;;;;;8.68;3.70;;;8.70;99.90;;;;;;4970349;28;20125;-68
2021/12/18 11:47:22;;;;;;;8.98;3.35;;;8.70;99.90;;;;;;4970356;28;20039;-68
2021/12/18 11:49:48;;;;;;;7.53;3.28;;;8.70;99.90;;;;;;4970252;28;20571;-68
2021/12/18 11:52:14;;;;;;;7.47;2.92;;;8.70;99.90;;;;;;4970409;28;20092;-68
2021/12/18 11:54:44;;;;;;;7.80;3.00;;;8.70;99.90;;;;;;4954428;28;20383;-68
2021/12/18 11:57:33;;;;;;;12.05;3.47;;;8.70;99.90;;;;;;4970335;28;20068;-68
2021/12/18 11:59:59;;;;;;;11.45;3.50;;;8.80;99.90;;;;;;4969949;28;20122;-68
2021/12/18 12:02:45;;;;;;;6.95;3.17;;;8.80;99.90;;;;;;4969920;28;20126;-68
2021/12/18 12:05:12;;;;;;;9.35;3.58;;;8.80;99.90;;;;;;4953967;28;20126;-68
2021/12/18 12:07:38;;;;;;;9.07;4.05;;;8.90;99.90;;;;;;4970039;28;20050;-69
2021/12/18 12:10:07;;;;;;;8.35;3.83;;;8.90;99.90;;;;;;4969930;28;20047;-69
2021/12/18 12:12:56;;;;;;;5.47;2.75;;;8.90;99.90;;;;;;4967761;28;20059;-70
2021/12/18 12:15:26;;;;;;;6.87;3.03;;;8.90;99.90;;;;;;4969987;28;20046;-70
2021/12/18 12:17:58;;;;;;;6.95;3.42;;;8.90;99.90;;;;;;4992596;28;20297;-69
2021/12/18 12:20:48;;;;;;;5.78;2.70;;;8.90;99.90;;;;;;4992514;28;20042;-69
2021/12/18 12:23:14;;;;;;;6.68;3.00;;;8.90;99.90;;;;;;4976296;28;20038;-69
2021/12/18 12:25:44;;;;;;;5.97;2.45;;;8.90;99.90;;;;;;4992491;28;20038;-69
2021/12/18 12:28:20;;;;;;;5.20;2.30;;;8.90;99.90;;;;;;4992388;28;20042;-69
2021/12/18 12:30:57;;;;;;;7.10;2.72;;;8.90;99.90;;;;;;4976488;28;20046;-69
2021/12/18 12:33:27;;;;;;;10.52;3.08;;;9.00;99.90;;;;;;4994901;28;20049;-69
2021/12/18 12:36:01;;;;;;;6.88;3.55;;;9.00;99.90;;;;;;4979640;28;20094;-69
2021/12/18 12:38:34;;;;;;;6.22;2.83;;;8.90;99.90;;;;;;4995649;28;20458;-69
2021/12/18 12:41:36;;;;;;;8.18;3.17;;;8.90;99.90;;;;;;5028563;28;20685;-69
2021/12/18 12:44:15;;;;;;;5.57;3.78;;;8.90;99.90;;;;;;4996016;28;20365;-69
2021/12/18 12:46:42;;;;;;;7.20;3.75;;;8.90;99.90;;;;;;4979378;28;20046;-68
2021/12/18 12:49:16;;;;;;;8.45;3.97;;;8.90;99.90;;;;;;4995055;28;20048;-69
2021/12/18 12:51:57;;;;;;;10.15;3.53;;;8.90;99.90;;;;;;4994687;28;20081;-69
2021/12/18 12:54:38;;;;;;;7.72;2.90;;;9.00;99.90;;;;;;4994721;28;20125;-68
2021/12/18 12:57:22;;;;;;;10.43;3.83;;;8.90;99.90;;;;;;5027651;28;20133;-68
2021/12/18 13:00:08;;;;;;;7.07;3.40;;;9.00;99.90;;;;;;5010744;28;20049;-68
2021/12/18 13:02:49;;;;;;;12.10;3.83;;;9.00;99.90;;;;;;5009719;28;20049;-68
2021/12/18 13:05:15;;;;;;;6.90;3.63;;;9.00;99.90;;;;;;4994486;28;20041;-68
2021/12/18 13:07:51;;;;;;;5.55;3.50;;;8.90;99.90;;;;;;4994304;28;20041;-69
2021/12/18 13:10:22;;;;;;;11.02;3.70;;;9.00;99.90;;;;;;4978346;28;20076;-68
2021/12/18 13:13:02;;;;;;;8.45;4.10;;;8.90;99.90;;;;;;5008074;28;20073;-68
2021/12/18 13:15:44;;;;;;;5.27;2.77;;;8.90;99.90;;;;;;4978356;28;20053;-68
2021/12/18 13:18:10;;;;;;;9.93;3.70;;;8.90;99.90;;;;;;5027206;28;20130;-69
2021/12/18 13:20:45;;;;;;;8.55;3.90;;;8.90;99.90;;;;;;5026885;28;20049;-69
2021/12/18 13:23:18;;;;;;;11.32;3.70;;;8.90;99.90;;;;;;4994453;28;20034;-68
2021/12/18 13:25:49;;;;;;;9.70;3.67;;;8.90;99.90;;;;;;4994427;28;20073;-68
2021/12/18 13:28:15;;;;;;;5.72;3.53;;;8.90;99.90;;;;;;4994047;28;20485;-69
2021/12/18 13:30:41;;;;;;;6.32;2.72;;;8.90;99.90;;;;;;5026868;28;20053;-70
2021/12/18 13:33:08;;;;;;;6.15;2.92;;;8.80;99.90;;;;;;5026804;28;20049;-69
2021/12/18 13:35:37;;;;;;;6.60;3.42;;;8.80;99.90;;;;;;4994278;28;20053;-69
2021/12/18 13:38:07;;;;;;;9.20;3.33;;;8.80;99.90;;;;;;4993741;28;20065;-69
2021/12/18 13:40:46;;;;;;;10.50;4.78;;;8.80;99.90;;;;;;4993889;28;20100;-69
2021/12/18 13:43:18;;;;;;;10.00;4.25;;;8.80;99.90;;;;;;4991132;28;20041;-69
2021/12/18 13:45:59;;;;;;;10.23;4.13;;;8.80;99.90;;;;;;4977712;28;20042;-69
2021/12/18 13:48:31;;;;;;;9.48;4.43;;;8.80;99.90;;;;;;4993876;28;20394;-69